N43CB PHNL-PHLI
Flight info
| Callsign | N43CB |
|---|---|
| Flight time | 0h 22m |
| Altitude | 16000 |
| Route | KEOLA3 LIH |
| Aircraft | C25C/M-L/LB1 |
Departure
| Time | 2026-05-08 03:36 |
|---|---|
| Airport | Daniel K. Inouye International Airport (PHNL) |
Arrival
| Time | 2026-05-08 03:58 |
|---|---|
| Airport | Lihue Airport (PHLI) |
| Time | Latitude | Longitude | Altitude | Speed | Heading |
|---|---|---|---|---|---|
| 2026-05-08 03:22 | 21.32208 | -157.91224 | 8 ft | 0 kts | 154° |
| 2026-05-08 03:29 | 21.32216 | -157.91229 | 8 ft | 2 kts | 153° |
| 2026-05-08 03:30 | 21.32246 | -157.91244 | 8 ft | 2 kts | 156° |
| 2026-05-08 03:30 | 21.32276 | -157.91251 | 8 ft | 1 kts | 218° |
| 2026-05-08 03:31 | 21.32277 | -157.91250 | 8 ft | 0 kts | 225° |
| 2026-05-08 03:32 | 21.32259 | -157.91275 | 8 ft | 13 kts | 233° |
| 2026-05-08 03:32 | 21.32176 | -157.91390 | 9 ft | 22 kts | 232° |
| 2026-05-08 03:32 | 21.32084 | -157.91518 | 10 ft | 22 kts | 232° |
| 2026-05-08 03:33 | 21.31985 | -157.91645 | 11 ft | 22 kts | 216° |
| 2026-05-08 03:33 | 21.31871 | -157.91741 | 13 ft | 21 kts | 233° |
| 2026-05-08 03:33 | 21.31783 | -157.91869 | 11 ft | 22 kts | 233° |
| 2026-05-08 03:33 | 21.31684 | -157.92011 | 10 ft | 26 kts | 233° |
| 2026-05-08 03:34 | 21.31565 | -157.92179 | 7 ft | 30 kts | 233° |
| 2026-05-08 03:34 | 21.31437 | -157.92362 | 6 ft | 31 kts | 233° |
| 2026-05-08 03:34 | 21.31318 | -157.92531 | 9 ft | 18 kts | 232° |
| 2026-05-08 03:34 | 21.31307 | -157.92629 | 10 ft | 10 kts | 322° |
| 2026-05-08 03:35 | 21.31318 | -157.92637 | 10 ft | 2 kts | 323° |
| 2026-05-08 03:35 | 21.31380 | -157.92687 | 12 ft | 19 kts | 333° |
| 2026-05-08 03:35 | 21.31461 | -157.92620 | 10 ft | 17 kts | 52° |
| 2026-05-08 03:35 | 21.31573 | -157.92461 | 8 ft | 52 kts | 53° |
| 2026-05-08 03:36 | 21.31947 | -157.91930 | 20 ft | 123 kts | 53° |
| 2026-05-08 03:36 | 21.32508 | -157.91127 | 298 ft | 140 kts | 51° |
| 2026-05-08 03:36 | 21.33015 | -157.90206 | 620 ft | 161 kts | 77° |
| 2026-05-08 03:36 | 21.32614 | -157.89019 | 991 ft | 191 kts | 133° |
| 2026-05-08 03:37 | 21.31319 | -157.88571 | 1438 ft | 210 kts | 180° |
| 2026-05-08 03:37 | 21.29782 | -157.88828 | 1921 ft | 243 kts | 188° |
| 2026-05-08 03:37 | 21.28094 | -157.89407 | 2752 ft | 260 kts | 214° |
| 2026-05-08 03:37 | 21.27009 | -157.90928 | 4006 ft | 262 kts | 250° |
| 2026-05-08 03:38 | 21.26775 | -157.92839 | 5269 ft | 259 kts | 272° |
| 2026-05-08 03:38 | 21.26919 | -157.94777 | 6345 ft | 263 kts | 275° |
| 2026-05-08 03:38 | 21.27071 | -157.96738 | 7415 ft | 265 kts | 274° |
| 2026-05-08 03:38 | 21.27182 | -157.98713 | 8477 ft | 266 kts | 272° |
| 2026-05-08 03:39 | 21.27280 | -158.00697 | 9546 ft | 267 kts | 272° |
| 2026-05-08 03:39 | 21.27387 | -158.02701 | 10501 ft | 271 kts | 273° |
| 2026-05-08 03:39 | 21.27496 | -158.04731 | 11374 ft | 275 kts | 272° |
| 2026-05-08 03:39 | 21.27607 | -158.06796 | 12206 ft | 280 kts | 273° |
| 2026-05-08 03:40 | 21.27720 | -158.08897 | 13018 ft | 284 kts | 272° |
| 2026-05-08 03:40 | 21.27833 | -158.11023 | 13834 ft | 288 kts | 272° |
| 2026-05-08 03:40 | 21.27947 | -158.13180 | 14431 ft | 292 kts | 272° |
| 2026-05-08 03:40 | 21.28062 | -158.15371 | 14998 ft | 296 kts | 272° |
| 2026-05-08 03:41 | 21.28180 | -158.17583 | 15571 ft | 299 kts | 273° |
| 2026-05-08 03:41 | 21.28300 | -158.19831 | 15943 ft | 308 kts | 273° |
| 2026-05-08 03:41 | 21.28423 | -158.22194 | 15997 ft | 327 kts | 273° |
| 2026-05-08 03:41 | 21.28554 | -158.24696 | 16010 ft | 345 kts | 273° |
| 2026-05-08 03:42 | 21.28692 | -158.27319 | 16012 ft | 359 kts | 273° |
| 2026-05-08 03:42 | 21.28834 | -158.30041 | 16007 ft | 372 kts | 273° |
| 2026-05-08 03:42 | 21.28980 | -158.32839 | 16006 ft | 376 kts | 273° |
| 2026-05-08 03:42 | 21.29121 | -158.35574 | 16000 ft | 369 kts | 273° |
| 2026-05-08 03:43 | 21.29262 | -158.38299 | 16002 ft | 363 kts | 273° |
| 2026-05-08 03:43 | 21.29400 | -158.40983 | 15994 ft | 358 kts | 273° |
| 2026-05-08 03:43 | 21.29536 | -158.43634 | 15988 ft | 355 kts | 273° |
| 2026-05-08 03:43 | 21.29671 | -158.46261 | 15983 ft | 351 kts | 273° |
| 2026-05-08 03:44 | 21.29981 | -158.48843 | 15979 ft | 349 kts | 286° |
| 2026-05-08 03:44 | 21.31033 | -158.51170 | 15977 ft | 347 kts | 300° |
| 2026-05-08 03:44 | 21.32307 | -158.53364 | 15977 ft | 346 kts | 301° |
| 2026-05-08 03:44 | 21.33601 | -158.55534 | 15978 ft | 345 kts | 302° |
| 2026-05-08 03:45 | 21.34881 | -158.57704 | 15977 ft | 344 kts | 301° |
| 2026-05-08 03:45 | 21.36141 | -158.59877 | 15978 ft | 343 kts | 301° |
| 2026-05-08 03:45 | 21.37410 | -158.62059 | 15976 ft | 347 kts | 301° |
| 2026-05-08 03:45 | 21.38701 | -158.64269 | 15979 ft | 352 kts | 301° |
| 2026-05-08 03:46 | 21.40008 | -158.66505 | 15980 ft | 356 kts | 301° |
| 2026-05-08 03:46 | 21.41324 | -158.68764 | 15987 ft | 359 kts | 301° |
| 2026-05-08 03:46 | 21.42651 | -158.71044 | 15989 ft | 361 kts | 301° |
| 2026-05-08 03:46 | 21.43987 | -158.73336 | 15990 ft | 363 kts | 301° |
| 2026-05-08 03:47 | 21.45331 | -158.75643 | 15989 ft | 365 kts | 301° |
| 2026-05-08 03:47 | 21.46677 | -158.77957 | 15990 ft | 366 kts | 301° |
| 2026-05-08 03:47 | 21.48028 | -158.80280 | 15993 ft | 367 kts | 301° |
| 2026-05-08 03:47 | 21.49384 | -158.82610 | 15994 ft | 368 kts | 301° |
| 2026-05-08 03:48 | 21.50740 | -158.84942 | 15998 ft | 368 kts | 301° |
| 2026-05-08 03:48 | 21.52093 | -158.87273 | 16000 ft | 367 kts | 301° |
| 2026-05-08 03:48 | 21.53447 | -158.89597 | 15997 ft | 367 kts | 301° |
| 2026-05-08 03:48 | 21.54799 | -158.91917 | 15997 ft | 366 kts | 301° |
| 2026-05-08 03:49 | 21.56144 | -158.94233 | 16004 ft | 365 kts | 301° |
| 2026-05-08 03:49 | 21.57489 | -158.96546 | 16001 ft | 365 kts | 301° |
| 2026-05-08 03:49 | 21.58832 | -158.98858 | 16001 ft | 364 kts | 301° |
| 2026-05-08 03:49 | 21.60174 | -159.01168 | 15999 ft | 364 kts | 301° |
| 2026-05-08 03:50 | 21.61497 | -159.03445 | 15914 ft | 346 kts | 301° |
| 2026-05-08 03:50 | 21.62733 | -159.05572 | 15317 ft | 326 kts | 301° |
| 2026-05-08 03:50 | 21.63903 | -159.07592 | 14725 ft | 312 kts | 300° |
| 2026-05-08 03:50 | 21.65020 | -159.09521 | 14154 ft | 304 kts | 300° |
| 2026-05-08 03:51 | 21.66138 | -159.11450 | 13555 ft | 305 kts | 300° |
| 2026-05-08 03:51 | 21.67260 | -159.13385 | 12882 ft | 306 kts | 301° |
| 2026-05-08 03:51 | 21.68372 | -159.15303 | 12156 ft | 298 kts | 300° |
| 2026-05-08 03:51 | 21.69452 | -159.17167 | 11437 ft | 290 kts | 300° |
| 2026-05-08 03:52 | 21.70506 | -159.18990 | 10730 ft | 284 kts | 300° |
| 2026-05-08 03:52 | 21.71540 | -159.20775 | 10042 ft | 279 kts | 300° |
| 2026-05-08 03:52 | 21.72557 | -159.22534 | 9288 ft | 275 kts | 300° |
| 2026-05-08 03:52 | 21.73562 | -159.24272 | 8546 ft | 272 kts | 300° |
| 2026-05-08 03:53 | 21.74556 | -159.25994 | 7771 ft | 271 kts | 300° |
| 2026-05-08 03:53 | 21.75549 | -159.27722 | 6927 ft | 270 kts | 301° |
| 2026-05-08 03:53 | 21.76505 | -159.29379 | 6063 ft | 253 kts | 301° |
| 2026-05-08 03:53 | 21.77410 | -159.30949 | 5181 ft | 242 kts | 302° |
| 2026-05-08 03:54 | 21.77988 | -159.31955 | 4709 ft | 233 kts | 302° |
| 2026-05-08 03:54 | 21.78811 | -159.33338 | 4483 ft | 203 kts | 311° |
| 2026-05-08 03:54 | 21.80024 | -159.33978 | 4305 ft | 197 kts | 355° |
| 2026-05-08 03:54 | 21.81352 | -159.33703 | 3965 ft | 186 kts | 12° |
| 2026-05-08 03:55 | 21.82584 | -159.33609 | 3588 ft | 171 kts | 2° |
| 2026-05-08 03:55 | 21.83754 | -159.33599 | 3179 ft | 165 kts | 2° |
| 2026-05-08 03:55 | 21.84850 | -159.33600 | 2950 ft | 154 kts | 2° |
| 2026-05-08 03:55 | 21.85955 | -159.33599 | 2479 ft | 163 kts | 4° |
| 2026-05-08 03:56 | 21.87108 | -159.33597 | 2018 ft | 168 kts | 4° |
| 2026-05-08 03:56 | 21.88279 | -159.33596 | 1713 ft | 169 kts | 3° |
| 2026-05-08 03:56 | 21.89471 | -159.33595 | 1486 ft | 174 kts | 4° |
| 2026-05-08 03:56 | 21.90684 | -159.33593 | 1259 ft | 174 kts | 4° |
| 2026-05-08 03:57 | 21.91869 | -159.33593 | 1023 ft | 166 kts | 2° |
| 2026-05-08 03:57 | 21.93002 | -159.33595 | 797 ft | 158 kts | 4° |
| 2026-05-08 03:57 | 21.94001 | -159.33590 | 603 ft | 133 kts | 5° |
| 2026-05-08 03:57 | 21.94861 | -159.33591 | 426 ft | 115 kts | 5° |
| 2026-05-08 03:58 | 21.95616 | -159.33595 | 304 ft | 106 kts | 2° |
| 2026-05-08 03:58 | 21.96370 | -159.33593 | 144 ft | 110 kts | 360° |
| 2026-05-08 03:58 | 21.97077 | -159.33591 | 91 ft | 84 kts | 360° |
| 2026-05-08 03:58 | 21.97400 | -159.33590 | 93 ft | 33 kts | 0° |
| 2026-05-08 03:59 | 21.97604 | -159.33590 | 94 ft | 27 kts | 359° |
| 2026-05-08 03:59 | 21.97776 | -159.33620 | 96 ft | 24 kts | 341° |
| 2026-05-08 03:59 | 21.97921 | -159.33694 | 95 ft | 22 kts | 339° |
| 2026-05-08 03:59 | 21.98069 | -159.33712 | 96 ft | 23 kts | 1° |
| 2026-05-08 04:00 | 21.98270 | -159.33714 | 96 ft | 19 kts | 359° |
| 2026-05-08 04:00 | 21.98382 | -159.33782 | 95 ft | 19 kts | 315° |
| 2026-05-08 04:00 | 21.98414 | -159.33817 | 96 ft | 5 kts | 315° |
| 2026-05-08 04:00 | 21.98428 | -159.33832 | 96 ft | 0 kts | 314° |